sensor_id;sensor_type;location;lat;lon;timestamp;pressure;altitude;pressure_sealevel;temperature;humidity
10946;BME280;5525;42.648;23.368;2022-08-25T00:01:50;94541.91;;;19.93;100.00
10946;BME280;5525;42.648;23.368;2022-08-25T00:04:18;94500.28;;;19.60;100.00
10946;BME280;5525;42.648;23.368;2022-08-25T00:06:45;94544.25;;;19.88;100.00
10946;BME280;5525;42.648;23.368;2022-08-25T00:09:22;94558.75;;;19.95;100.00
10946;BME280;5525;42.648;23.368;2022-08-25T00:11:50;94556.78;;;19.96;100.00
10946;BME280;5525;42.648;23.368;2022-08-25T00:14:19;94554.09;;;20.06;100.00
10946;BME280;5525;42.648;23.368;2022-08-25T00:16:47;94558.44;;;20.11;100.00
10946;BME280;5525;42.648;23.368;2022-08-25T00:19:18;94553.34;;;20.09;100.00
10946;BME280;5525;42.648;23.368;2022-08-25T00:21:45;94544.63;;;19.86;100.00
10946;BME280;5525;42.648;23.368;2022-08-25T00:24:15;94546.19;;;19.87;100.00
10946;BME280;5525;42.648;23.368;2022-08-25T00:26:45;94544.19;;;19.77;100.00
10946;BME280;5525;42.648;23.368;2022-08-25T00:29:14;94481.44;;;19.48;100.00
10946;BME280;5525;42.648;23.368;2022-08-25T00:31:41;94509.25;;;19.60;100.00
10946;BME280;5525;42.648;23.368;2022-08-25T00:34:13;94534.00;;;19.78;100.00
10946;BME280;5525;42.648;23.368;2022-08-25T00:36:40;94539.88;;;19.76;100.00
10946;BME280;5525;42.648;23.368;2022-08-25T00:39:08;94539.88;;;19.76;100.00
10946;BME280;5525;42.648;23.368;2022-08-25T00:41:37;94545.72;;;19.68;100.00
10946;BME280;5525;42.648;23.368;2022-08-25T00:44:07;94567.72;;;19.85;100.00
10946;BME280;5525;42.648;23.368;2022-08-25T00:46:37;94556.38;;;19.90;100.00
10946;BME280;5525;42.648;23.368;2022-08-25T00:49:06;94553.25;;;19.85;100.00
10946;BME280;5525;42.648;23.368;2022-08-25T00:51:37;94565.41;;;19.94;100.00
10946;BME280;5525;42.648;23.368;2022-08-25T00:54:06;94559.97;;;20.05;100.00
10946;BME280;5525;42.648;23.368;2022-08-25T00:56:34;94548.59;;;20.06;100.00
10946;BME280;5525;42.648;23.368;2022-08-25T00:59:03;94536.13;;;20.13;100.00
10946;BME280;5525;42.648;23.368;2022-08-25T01:01:30;94529.06;;;20.08;100.00
10946;BME280;5525;42.648;23.368;2022-08-25T01:03:57;94528.22;;;19.93;100.00
10946;BME280;5525;42.648;23.368;2022-08-25T01:06:24;94537.63;;;20.06;100.00
10946;BME280;5525;42.648;23.368;2022-08-25T01:08:52;94532.16;;;19.99;100.00
10946;BME280;5525;42.648;23.368;2022-08-25T01:11:20;94518.81;;;19.94;100.00
10946;BME280;5525;42.648;23.368;2022-08-25T01:13:53;94496.03;;;19.76;100.00
10946;BME280;5525;42.648;23.368;2022-08-25T01:16:24;94495.66;;;19.78;100.00
10946;BME280;5525;42.648;23.368;2022-08-25T01:18:53;94509.81;;;19.97;100.00
10946;BME280;5525;42.648;23.368;2022-08-25T01:21:24;94523.16;;;20.06;100.00
10946;BME280;5525;42.648;23.368;2022-08-25T01:23:51;94504.00;;;20.09;100.00
10946;BME280;5525;42.648;23.368;2022-08-25T01:26:20;94506.31;;;20.04;100.00
10946;BME280;5525;42.648;23.368;2022-08-25T01:28:48;94501.25;;;20.06;100.00
10946;BME280;5525;42.648;23.368;2022-08-25T01:31:33;94521.63;;;20.12;100.00
10946;BME280;5525;42.648;23.368;2022-08-25T01:34:01;94523.63;;;20.15;100.00
10946;BME280;5525;42.648;23.368;2022-08-25T01:36:29;94531.41;;;20.09;100.00
10946;BME280;5525;42.648;23.368;2022-08-25T01:38:56;94527.91;;;20.16;100.00
10946;BME280;5525;42.648;23.368;2022-08-25T01:41:30;94513.81;;;20.18;100.00
10946;BME280;5525;42.648;23.368;2022-08-25T01:44:01;94522.47;;;20.27;100.00
10946;BME280;5525;42.648;23.368;2022-08-25T01:46:30;94527.56;;;20.32;100.00
10946;BME280;5525;42.648;23.368;2022-08-25T01:48:58;94536.19;;;20.30;100.00
10946;BME280;5525;42.648;23.368;2022-08-25T01:51:27;94535.44;;;20.44;100.00
10946;BME280;5525;42.648;23.368;2022-08-25T01:53:56;94520.19;;;20.60;100.00
10946;BME280;5525;42.648;23.368;2022-08-25T01:56:23;94523.72;;;20.64;100.00
10946;BME280;5525;42.648;23.368;2022-08-25T01:58:50;94511.56;;;20.65;100.00
10946;BME280;5525;42.648;23.368;2022-08-25T02:01:20;94493.13;;;20.55;100.00
10946;BME280;5525;42.648;23.368;2022-08-25T02:03:49;94506.09;;;20.62;100.00
10946;BME280;5525;42.648;23.368;2022-08-25T02:06:19;94460.88;;;19.99;100.00
10946;BME280;5525;42.648;23.368;2022-08-25T02:08:50;94505.63;;;20.25;100.00
10946;BME280;5525;42.648;23.368;2022-08-25T02:11:18;94502.06;;;20.14;100.00
10946;BME280;5525;42.648;23.368;2022-08-25T02:13:46;94510.25;;;20.03;100.00
10946;BME280;5525;42.648;23.368;2022-08-25T02:16:17;94499.56;;;19.73;100.00
10946;BME280;5525;42.648;23.368;2022-08-25T02:18:45;94501.13;;;19.74;100.00
10946;BME280;5525;42.648;23.368;2022-08-25T02:21:12;94502.31;;;19.80;100.00
10946;BME280;5525;42.648;23.368;2022-08-25T02:23:39;94447.00;;;19.43;100.00
10946;BME280;5525;42.648;23.368;2022-08-25T02:26:06;94511.69;;;19.72;100.00
10946;BME280;5525;42.648;23.368;2022-08-25T02:28:35;94503.38;;;19.55;100.00
10946;BME280;5525;42.648;23.368;2022-08-25T02:31:03;94501.03;;;19.53;100.00
10946;BME280;5525;42.648;23.368;2022-08-25T02:33:30;94501.38;;;19.48;100.00
10946;BME280;5525;42.648;23.368;2022-08-25T02:35:58;94507.25;;;19.43;100.00
10946;BME280;5525;42.648;23.368;2022-08-25T02:38:25;94503.56;;;19.22;100.00
10946;BME280;5525;42.648;23.368;2022-08-25T02:40:53;94511.50;;;19.37;100.00
10946;BME280;5525;42.648;23.368;2022-08-25T02:43:19;94513.41;;;19.30;100.00
10946;BME280;5525;42.648;23.368;2022-08-25T02:45:48;94503.66;;;19.32;100.00
10946;BME280;5525;42.648;23.368;2022-08-25T02:48:14;94499.41;;;19.42;100.00
10946;BME280;5525;42.648;23.368;2022-08-25T02:50:45;94509.22;;;19.50;100.00
10946;BME280;5525;42.648;23.368;2022-08-25T02:53:12;94516.28;;;19.51;100.00
10946;BME280;5525;42.648;23.368;2022-08-25T02:55:39;94509.25;;;19.60;100.00
10946;BME280;5525;42.648;23.368;2022-08-25T02:58:06;94512.03;;;19.64;100.00
10946;BME280;5525;42.648;23.368;2022-08-25T03:00:34;94513.63;;;19.65;100.00
10946;BME280;5525;42.648;23.368;2022-08-25T03:03:03;94524.19;;;19.66;100.00
10946;BME280;5525;42.648;23.368;2022-08-25T03:05:30;94523.81;;;19.68;100.00
10946;BME280;5525;42.648;23.368;2022-08-25T03:07:58;94522.91;;;19.50;100.00
10946;BME280;5525;42.648;23.368;2022-08-25T03:10:25;94528.38;;;19.50;100.00
10946;BME280;5525;42.648;23.368;2022-08-25T03:12:52;94520.19;;;19.53;100.00
10946;BME280;5525;42.648;23.368;2022-08-25T03:15:19;94497.06;;;19.40;100.00
10946;BME280;5525;42.648;23.368;2022-08-25T03:17:46;94514.72;;;19.53;100.00
10946;BME280;5525;42.648;23.368;2022-08-25T03:20:17;94481.28;;;19.27;100.00
10946;BME280;5525;42.648;23.368;2022-08-25T03:22:45;94511.56;;;19.48;100.00
10946;BME280;5525;42.648;23.368;2022-08-25T03:25:12;94508.00;;;19.44;100.00
10946;BME280;5525;42.648;23.368;2022-08-25T03:27:56;94511.88;;;19.36;100.00
10946;BME280;5525;42.648;23.368;2022-08-25T03:30:24;94536.19;;;19.44;100.00
10946;BME280;5525;42.648;23.368;2022-08-25T03:32:52;94533.09;;;19.53;100.00
10946;BME280;5525;42.648;23.368;2022-08-25T03:35:20;94533.09;;;19.53;100.00
10946;BME280;5525;42.648;23.368;2022-08-25T03:37:47;94496.59;;;19.31;100.00
10946;BME280;5525;42.648;23.368;2022-08-25T03:40:15;94493.56;;;19.43;100.00
10946;BME280;5525;42.648;23.368;2022-08-25T03:42:44;94523.69;;;19.50;100.00
10946;BME280;5525;42.648;23.368;2022-08-25T03:45:13;94525.69;;;19.60;100.00
10946;BME280;5525;42.648;23.368;2022-08-25T03:47:41;94518.25;;;19.54;100.00
10946;BME280;5525;42.648;23.368;2022-08-25T03:50:10;94502.59;;;19.54;100.00
10946;BME280;5525;42.648;23.368;2022-08-25T03:52:38;94508.91;;;19.65;100.00
10946;BME280;5525;42.648;23.368;2022-08-25T03:55:08;94510.84;;;19.61;100.00
10946;BME280;5525;42.648;23.368;2022-08-25T03:57:35;94497.13;;;19.58;100.00
10946;BME280;5525;42.648;23.368;2022-08-25T04:00:04;94514.81;;;19.71;100.00
10946;BME280;5525;42.648;23.368;2022-08-25T04:02:32;94507.38;;;19.71;100.00
10946;BME280;5525;42.648;23.368;2022-08-25T04:04:59;94520.78;;;19.97;100.00
10946;BME280;5525;42.648;23.368;2022-08-25T04:07:26;94513.34;;;19.91;100.00
10946;BME280;5525;42.648;23.368;2022-08-25T04:09:54;94511.38;;;20.02;100.00
10946;BME280;5525;42.648;23.368;2022-08-25T04:12:22;94498.09;;;20.04;100.00
10946;BME280;5525;42.648;23.368;2022-08-25T04:14:49;94473.03;;;19.98;100.00
10946;BME280;5525;42.648;23.368;2022-08-25T04:17:17;94521.25;;;20.14;100.00
10946;BME280;5525;42.648;23.368;2022-08-25T04:19:44;94487.56;;;20.09;100.00
10946;BME280;5525;42.648;23.368;2022-08-25T04:22:11;94497.38;;;20.18;100.00
10946;BME280;5525;42.648;23.368;2022-08-25T04:24:38;94509.53;;;20.27;100.00
10946;BME280;5525;42.648;23.368;2022-08-25T04:27:06;94478.59;;;20.20;100.00
10946;BME280;5525;42.648;23.368;2022-08-25T04:29:34;94495.44;;;20.29;100.00
10946;BME280;5525;42.648;23.368;2022-08-25T04:32:01;94473.47;;;20.11;100.00
10946;BME280;5525;42.648;23.368;2022-08-25T04:34:28;94506.41;;;20.22;100.00
10946;BME280;5525;42.648;23.368;2022-08-25T04:36:56;94497.00;;;20.23;100.00
10946;BME280;5525;42.648;23.368;2022-08-25T04:39:23;94515.06;;;20.45;100.00
10946;BME280;5525;42.648;23.368;2022-08-25T04:41:50;94508.41;;;20.49;100.00
10946;BME280;5525;42.648;23.368;2022-08-25T04:44:18;94489.56;;;20.30;100.00
10946;BME280;5525;42.648;23.368;2022-08-25T04:46:46;94519.75;;;20.51;100.00
10946;BME280;5525;42.648;23.368;2022-08-25T04:49:14;94511.56;;;20.72;100.00
10946;BME280;5525;42.648;23.368;2022-08-25T04:51:41;94477.47;;;20.91;100.00
10946;BME280;5525;42.648;23.368;2022-08-25T04:54:11;94521.78;;;21.28;100.00
10946;BME280;5525;42.648;23.368;2022-08-25T04:56:39;94482.94;;;21.19;100.00
10946;BME280;5525;42.648;23.368;2022-08-25T04:59:08;94508.00;;;21.52;100.00
10946;BME280;5525;42.648;23.368;2022-08-25T05:01:38;94531.94;;;21.55;100.00
10946;BME280;5525;42.648;23.368;2022-08-25T05:04:08;94524.88;;;21.51;100.00
10946;BME280;5525;42.648;23.368;2022-08-25T05:06:35;94485.59;;;21.61;100.00
10946;BME280;5525;42.648;23.368;2022-08-25T05:09:05;94515.38;;;21.69;100.00
10946;BME280;5525;42.648;23.368;2022-08-25T05:11:34;94507.59;;;21.43;100.00
10946;BME280;5525;42.648;23.368;2022-08-25T05:14:02;94522.94;;;21.48;100.00
10946;BME280;5525;42.648;23.368;2022-08-25T05:16:29;94519.06;;;21.14;100.00
10946;BME280;5525;42.648;23.368;2022-08-25T05:18:58;94500.97;;;21.27;100.00
10946;BME280;5525;42.648;23.368;2022-08-25T05:21:26;94505.69;;;21.26;100.00
10946;BME280;5525;42.648;23.368;2022-08-25T05:23:54;94492.28;;;21.53;100.00
10946;BME280;5525;42.648;23.368;2022-08-25T05:26:23;94506.81;;;21.50;100.00
10946;BME280;5525;42.648;23.368;2022-08-25T05:28:52;94481.69;;;21.51;100.00
10946;BME280;5525;42.648;23.368;2022-08-25T05:31:21;94506.78;;;21.67;100.00
10946;BME280;5525;42.648;23.368;2022-08-25T05:33:48;94502.31;;;22.12;100.00
10946;BME280;5525;42.648;23.368;2022-08-25T05:36:17;94493.94;;;22.30;100.00
10946;BME280;5525;42.648;23.368;2022-08-25T05:38:44;94512.38;;;22.33;100.00
10946;BME280;5525;42.648;23.368;2022-08-25T05:41:14;94469.09;;;22.44;100.00
10946;BME280;5525;42.648;23.368;2022-08-25T05:43:43;94504.66;;;22.79;100.00
10946;BME280;5525;42.648;23.368;2022-08-25T05:46:11;94504.72;;;23.16;100.00
10946;BME280;5525;42.648;23.368;2022-08-25T05:48:39;94508.91;;;23.38;100.00
10946;BME280;5525;42.648;23.368;2022-08-25T05:51:08;94512.03;;;22.92;100.00
10946;BME280;5525;42.648;23.368;2022-08-25T05:53:38;94500.81;;;22.66;100.00
10946;BME280;5525;42.648;23.368;2022-08-25T05:56:06;94505.75;;;22.92;100.00
10946;BME280;5525;42.648;23.368;2022-08-25T05:58:33;94486.75;;;23.04;100.00
10946;BME280;5525;42.648;23.368;2022-08-25T06:01:00;94506.38;;;23.06;100.00
10946;BME280;5525;42.648;23.368;2022-08-25T06:03:49;94500.63;;;22.94;100.00
10946;BME280;5525;42.648;23.368;2022-08-25T06:06:20;94475.84;;;22.90;100.00
10946;BME280;5525;42.648;23.368;2022-08-25T06:08:54;94463.31;;;22.82;100.00
10946;BME280;5525;42.648;23.368;2022-08-25T06:11:24;94455.84;;;23.23;100.00
10946;BME280;5525;42.648;23.368;2022-08-25T06:14:00;94503.00;;;24.10;100.00
10946;BME280;5525;42.648;23.368;2022-08-25T06:16:28;94510.00;;;24.45;100.00
10946;BME280;5525;42.648;23.368;2022-08-25T06:19:09;94517.50;;;24.74;100.00
10946;BME280;5525;42.648;23.368;2022-08-25T06:21:39;94462.22;;;24.78;100.00
10946;BME280;5525;42.648;23.368;2022-08-25T06:24:10;94446.44;;;24.78;96.83
10946;BME280;5525;42.648;23.368;2022-08-25T06:26:44;94501.00;;;25.44;92.81
10946;BME280;5525;42.648;23.368;2022-08-25T06:29:12;94500.09;;;26.12;88.75
10946;BME280;5525;42.648;23.368;2022-08-25T06:31:41;94505.59;;;25.93;88.67
10946;BME280;5525;42.648;23.368;2022-08-25T06:34:11;94500.75;;;26.20;85.27
10946;BME280;5525;42.648;23.368;2022-08-25T06:36:38;94464.19;;;26.80;79.90
10946;BME280;5525;42.648;23.368;2022-08-25T06:39:06;94507.63;;;27.95;72.24
10946;BME280;5525;42.648;23.368;2022-08-25T06:41:39;94510.19;;;28.85;65.18
10946;BME280;5525;42.648;23.368;2022-08-25T06:44:06;94509.28;;;30.19;57.52
10946;BME280;5525;42.648;23.368;2022-08-25T06:46:35;94504.59;;;30.28;55.34
10946;BME280;5525;42.648;23.368;2022-08-25T06:49:04;94523.38;;;31.10;51.70
10946;BME280;5525;42.648;23.368;2022-08-25T06:51:32;94485.19;;;30.98;50.99
10946;BME280;5525;42.648;23.368;2022-08-25T06:54:07;94522.09;;;32.54;45.74
10946;BME280;5525;42.648;23.368;2022-08-25T06:56:38;94514.94;;;31.90;45.79
10946;BME280;5525;42.648;23.368;2022-08-25T06:59:06;94515.38;;;32.69;43.91
10946;BME280;5525;42.648;23.368;2022-08-25T07:01:33;94529.31;;;33.06;42.75
10946;BME280;5525;42.648;23.368;2022-08-25T07:04:03;94533.81;;;33.03;42.44
10946;BME280;5525;42.648;23.368;2022-08-25T07:06:32;94529.19;;;33.33;41.82
10946;BME280;5525;42.648;23.368;2022-08-25T07:09:00;94514.44;;;31.73;44.60
10946;BME280;5525;42.648;23.368;2022-08-25T07:11:28;94513.88;;;31.87;45.26
10946;BME280;5525;42.648;23.368;2022-08-25T07:14:04;94519.44;;;30.47;49.57
10946;BME280;5525;42.648;23.368;2022-08-25T07:16:32;94499.97;;;28.94;54.10
10946;BME280;5525;42.648;23.368;2022-08-25T07:19:02;94490.00;;;28.02;59.87
10946;BME280;5525;42.648;23.368;2022-08-25T07:21:31;94511.53;;;28.80;57.10
10946;BME280;5525;42.648;23.368;2022-08-25T07:23:59;94501.84;;;28.19;60.45
10946;BME280;5525;42.648;23.368;2022-08-25T07:26:30;94451.41;;;28.08;61.88
10946;BME280;5525;42.648;23.368;2022-08-25T07:29:01;94488.50;;;29.05;55.62
10946;BME280;5525;42.648;23.368;2022-08-25T07:31:29;94514.78;;;29.04;56.60
10946;BME280;5525;42.648;23.368;2022-08-25T07:33:56;94513.88;;;28.94;56.04
10946;BME280;5525;42.648;23.368;2022-08-25T07:36:40;94498.22;;;28.75;56.69
10946;BME280;5525;42.648;23.368;2022-08-25T07:39:07;94512.84;;;29.98;53.38
10946;BME280;5525;42.648;23.368;2022-08-25T07:41:37;94490.06;;;30.76;48.22
10946;BME280;5525;42.648;23.368;2022-08-25T07:44:06;94505.44;;;30.59;48.06
10946;BME280;5525;42.648;23.368;2022-08-25T07:46:34;94523.94;;;30.44;49.20
10946;BME280;5525;42.648;23.368;2022-08-25T07:49:01;94509.13;;;29.79;51.52
10946;BME280;5525;42.648;23.368;2022-08-25T07:51:29;94523.97;;;28.63;55.38
10946;BME280;5525;42.648;23.368;2022-08-25T07:53:57;94506.78;;;28.40;56.40
10946;BME280;5525;42.648;23.368;2022-08-25T07:56:24;94492.38;;;30.26;52.09
10946;BME280;5525;42.648;23.368;2022-08-25T07:58:51;94514.66;;;33.20;42.45
10946;BME280;5525;42.648;23.368;2022-08-25T08:01:21;94495.84;;;34.00;38.63
10946;BME280;5525;42.648;23.368;2022-08-25T08:03:49;94466.47;;;35.21;36.25
10946;BME280;5525;42.648;23.368;2022-08-25T08:06:19;94505.19;;;36.86;33.54
10946;BME280;5525;42.648;23.368;2022-08-25T08:08:49;94524.50;;;34.95;36.35
10946;BME280;5525;42.648;23.368;2022-08-25T08:11:19;94518.16;;;35.43;36.45
10946;BME280;5525;42.648;23.368;2022-08-25T08:13:48;94509.47;;;36.56;33.83
10946;BME280;5525;42.648;23.368;2022-08-25T08:16:23;94499.19;;;37.30;33.03
10946;BME280;5525;42.648;23.368;2022-08-25T08:18:51;94503.84;;;38.93;30.10
10946;BME280;5525;42.648;23.368;2022-08-25T08:21:20;94520.66;;;38.48;30.71
10946;BME280;5525;42.648;23.368;2022-08-25T08:23:49;94517.97;;;38.87;30.38
10946;BME280;5525;42.648;23.368;2022-08-25T08:26:17;94508.38;;;41.26;27.54
10946;BME280;5525;42.648;23.368;2022-08-25T08:28:44;94511.19;;;40.39;27.24
10946;BME280;5525;42.648;23.368;2022-08-25T08:31:12;94500.41;;;36.47;32.41
10946;BME280;5525;42.648;23.368;2022-08-25T08:33:41;94503.66;;;36.00;33.86
10946;BME280;5525;42.648;23.368;2022-08-25T08:36:10;94496.41;;;38.95;29.43
10946;BME280;5525;42.648;23.368;2022-08-25T08:38:38;94477.00;;;35.75;32.87
10946;BME280;5525;42.648;23.368;2022-08-25T08:41:13;94498.09;;;38.54;28.85
10946;BME280;5525;42.648;23.368;2022-08-25T08:44:05;94476.72;;;35.73;32.86
10946;BME280;5525;42.648;23.368;2022-08-25T08:46:41;94504.06;;;35.93;31.19
10946;BME280;5525;42.648;23.368;2022-08-25T08:49:20;94478.78;;;38.25;28.33
10946;BME280;5525;42.648;23.368;2022-08-25T08:51:55;94501.63;;;40.48;25.25
10946;BME280;5525;42.648;23.368;2022-08-25T08:54:25;94468.94;;;42.11;23.81
10946;BME280;5525;42.648;23.368;2022-08-25T08:57:02;94470.63;;;43.50;22.09
10946;BME280;5525;42.648;23.368;2022-08-25T08:59:39;94479.44;;;41.68;23.44
10946;BME280;5525;42.648;23.368;2022-08-25T09:02:14;94494.59;;;38.87;25.13
10946;BME280;5525;42.648;23.368;2022-08-25T09:04:47;94503.41;;;41.02;23.39
10946;BME280;5525;42.648;23.368;2022-08-25T09:07:20;94466.13;;;39.40;24.13
10946;BME280;5525;42.648;23.368;2022-08-25T09:09:48;94479.97;;;39.71;24.10
10946;BME280;5525;42.648;23.368;2022-08-25T09:12:24;94494.66;;;39.64;24.08
10946;BME280;5525;42.648;23.368;2022-08-25T09:15:06;94483.59;;;39.22;24.77
10946;BME280;5525;42.648;23.368;2022-08-25T09:17:46;94490.75;;;38.95;25.51
10946;BME280;5525;42.648;23.368;2022-08-25T09:20:48;94501.34;;;39.33;24.85
10946;BME280;5525;42.648;23.368;2022-08-25T09:23:32;94490.81;;;39.56;24.33
10946;BME280;5525;42.648;23.368;2022-08-25T09:26:18;94494.84;;;41.08;23.19
10946;BME280;5525;42.648;23.368;2022-08-25T09:28:49;94481.59;;;41.27;22.86
10946;BME280;5525;42.648;23.368;2022-08-25T09:31:25;94481.06;;;41.28;22.08
10946;BME280;5525;42.648;23.368;2022-08-25T09:33:55;94485.88;;;41.39;22.50
10946;BME280;5525;42.648;23.368;2022-08-25T09:36:24;94479.75;;;38.11;25.37
10946;BME280;5525;42.648;23.368;2022-08-25T09:38:51;94477.19;;;39.38;24.34
10946;BME280;5525;42.648;23.368;2022-08-25T09:41:35;94478.41;;;38.65;25.21
10946;BME280;5525;42.648;23.368;2022-08-25T09:44:15;94473.81;;;38.84;25.25
10946;BME280;5525;42.648;23.368;2022-08-25T09:46:54;94460.75;;;39.14;24.86
10946;BME280;5525;42.648;23.368;2022-08-25T09:49:30;94472.28;;;38.94;24.60
10946;BME280;5525;42.648;23.368;2022-08-25T09:52:21;94467.19;;;39.15;24.24
10946;BME280;5525;42.648;23.368;2022-08-25T09:54:48;94463.19;;;37.14;26.27
10946;BME280;5525;42.648;23.368;2022-08-25T09:57:31;94421.38;;;34.08;29.61
10946;BME280;5525;42.648;23.368;2022-08-25T10:00:10;94466.66;;;32.43;32.91
10946;BME280;5525;42.648;23.368;2022-08-25T10:02:38;94458.53;;;31.37;35.42
10946;BME280;5525;42.648;23.368;2022-08-25T10:05:18;94464.63;;;30.74;36.95
10946;BME280;5525;42.648;23.368;2022-08-25T10:07:52;94437.78;;;29.73;38.89
10946;BME280;5525;42.648;23.368;2022-08-25T10:10:27;94465.94;;;30.61;38.16
10946;BME280;5525;42.648;23.368;2022-08-25T10:12:55;94460.81;;;30.81;37.68
10946;BME280;5525;42.648;23.368;2022-08-25T10:15:28;94464.75;;;30.71;38.28
10946;BME280;5525;42.648;23.368;2022-08-25T10:17:55;94442.59;;;30.98;37.53
10946;BME280;5525;42.648;23.368;2022-08-25T10:20:26;94455.91;;;32.60;34.90
10946;BME280;5525;42.648;23.368;2022-08-25T10:23:10;94415.59;;;32.25;35.07
10946;BME280;5525;42.648;23.368;2022-08-25T10:25:44;94448.59;;;33.13;34.51
10946;BME280;5525;42.648;23.368;2022-08-25T10:28:23;94445.63;;;33.17;33.62
10946;BME280;5525;42.648;23.368;2022-08-25T10:31:03;94436.63;;;36.38;28.95
10946;BME280;5525;42.648;23.368;2022-08-25T10:33:39;94448.53;;;38.25;26.83
10946;BME280;5525;42.648;23.368;2022-08-25T10:36:14;94397.28;;;40.22;24.02
10946;BME280;5525;42.648;23.368;2022-08-25T10:38:50;94445.03;;;39.74;24.04
10946;BME280;5525;42.648;23.368;2022-08-25T10:41:41;94454.81;;;39.62;23.56
10946;BME280;5525;42.648;23.368;2022-08-25T10:44:20;94453.25;;;41.27;22.16
10946;BME280;5525;42.648;23.368;2022-08-25T10:47:37;94440.16;;;41.24;21.65
10946;BME280;5525;42.648;23.368;2022-08-25T10:50:13;94447.59;;;41.56;21.38
10946;BME280;5525;42.648;23.368;2022-08-25T10:52:56;94415.31;;;41.00;21.26
10946;BME280;5525;42.648;23.368;2022-08-25T10:55:34;94442.25;;;39.46;22.06
10946;BME280;5525;42.648;23.368;2022-08-25T10:58:15;94417.53;;;40.43;21.71
10946;BME280;5525;42.648;23.368;2022-08-25T11:00:54;94433.50;;;38.67;23.86
10946;BME280;5525;42.648;23.368;2022-08-25T11:03:49;94393.75;;;37.84;24.40
10946;BME280;5525;42.648;23.368;2022-08-25T11:06:24;94411.28;;;38.10;24.58
10946;BME280;5525;42.648;23.368;2022-08-25T11:08:58;94427.59;;;38.65;24.18
10946;BME280;5525;42.648;23.368;2022-08-25T11:11:34;94401.63;;;36.96;25.54
10946;BME280;5525;42.648;23.368;2022-08-25T11:14:06;94413.91;;;35.21;28.25
10946;BME280;5525;42.648;23.368;2022-08-25T11:16:39;94396.25;;;33.05;31.01
10946;BME280;5525;42.648;23.368;2022-08-25T11:19:15;94396.78;;;34.41;29.17
10946;BME280;5525;42.648;23.368;2022-08-25T11:21:50;94393.38;;;38.30;25.07
10946;BME280;5525;42.648;23.368;2022-08-25T11:24:31;94391.16;;;37.33;26.77
10946;BME280;5525;42.648;23.368;2022-08-25T11:27:04;94403.81;;;34.80;30.09
10946;BME280;5525;42.648;23.368;2022-08-25T11:29:34;94388.09;;;32.41;33.47
10946;BME280;5525;42.648;23.368;2022-08-25T11:32:06;94386.75;;;31.47;35.56
10946;BME280;5525;42.648;23.368;2022-08-25T11:34:37;94368.09;;;31.07;36.23
10946;BME280;5525;42.648;23.368;2022-08-25T11:37:17;94361.28;;;30.29;37.81
10946;BME280;5525;42.648;23.368;2022-08-25T11:40:11;94353.59;;;31.49;35.83
10946;BME280;5525;42.648;23.368;2022-08-25T11:42:57;94370.16;;;30.37;37.58
10946;BME280;5525;42.648;23.368;2022-08-25T11:45:42;94366.59;;;30.36;37.45
10946;BME280;5525;42.648;23.368;2022-08-25T11:48:20;94314.47;;;30.46;36.64
10946;BME280;5525;42.648;23.368;2022-08-25T11:51:01;94358.22;;;32.06;35.27
10946;BME280;5525;42.648;23.368;2022-08-25T11:53:32;94369.31;;;33.40;32.13
10946;BME280;5525;42.648;23.368;2022-08-25T11:56:04;94360.41;;;31.93;34.21
10946;BME280;5525;42.648;23.368;2022-08-25T11:58:45;94332.06;;;32.36;33.54
10946;BME280;5525;42.648;23.368;2022-08-25T12:04:45;94327.81;;;33.29;32.21
10946;BME280;5525;42.648;23.368;2022-08-25T12:07:56;94277.69;;;31.77;34.41
10946;BME280;5525;42.648;23.368;2022-08-25T12:10:56;94350.59;;;31.07;35.83
10946;BME280;5525;42.648;23.368;2022-08-25T12:13:42;94306.56;;;31.74;34.71
10946;BME280;5525;42.648;23.368;2022-08-25T12:16:37;94288.44;;;31.25;34.52
10946;BME280;5525;42.648;23.368;2022-08-25T12:19:48;94348.31;;;31.33;35.86
10946;BME280;5525;42.648;23.368;2022-08-25T12:22:42;94346.09;;;30.61;36.82
10946;BME280;5525;42.648;23.368;2022-08-25T12:25:31;94353.78;;;30.48;36.88
10946;BME280;5525;42.648;23.368;2022-08-25T12:28:05;94351.16;;;30.44;36.83
10946;BME280;5525;42.648;23.368;2022-08-25T12:30:47;94319.66;;;30.26;37.44
10946;BME280;5525;42.648;23.368;2022-08-25T12:33:27;94335.56;;;29.95;38.02
10946;BME280;5525;42.648;23.368;2022-08-25T12:36:01;94300.00;;;29.12;38.88
10946;BME280;5525;42.648;23.368;2022-08-25T12:38:32;94298.31;;;28.81;39.41
10946;BME280;5525;42.648;23.368;2022-08-25T12:41:06;94345.31;;;28.88;39.78
10946;BME280;5525;42.648;23.368;2022-08-25T12:43:38;94350.31;;;28.80;40.42
10946;BME280;5525;42.648;23.368;2022-08-25T12:46:34;94340.72;;;28.94;39.57
10946;BME280;5525;42.648;23.368;2022-08-25T12:49:03;94341.31;;;29.79;38.94
10946;BME280;5525;42.648;23.368;2022-08-25T12:51:55;94345.28;;;29.90;37.92
10946;BME280;5525;42.648;23.368;2022-08-25T12:54:37;94338.31;;;29.30;37.84
10946;BME280;5525;42.648;23.368;2022-08-25T12:57:26;94340.53;;;29.56;37.67
10946;BME280;5525;42.648;23.368;2022-08-25T13:00:00;94307.78;;;30.13;37.32
10946;BME280;5525;42.648;23.368;2022-08-25T13:02:52;94342.81;;;30.53;36.33
10946;BME280;5525;42.648;23.368;2022-08-25T13:06:04;94369.53;;;30.11;36.76
10946;BME280;5525;42.648;23.368;2022-08-25T13:09:03;94359.78;;;29.64;37.31
10946;BME280;5525;42.648;23.368;2022-08-25T13:12:01;94357.13;;;29.82;38.01
10946;BME280;5525;42.648;23.368;2022-08-25T13:14:36;94322.91;;;30.03;37.47
10946;BME280;5525;42.648;23.368;2022-08-25T13:17:03;94340.50;;;29.91;38.13
10946;BME280;5525;42.648;23.368;2022-08-25T13:19:33;94353.03;;;29.95;37.59
10946;BME280;5525;42.648;23.368;2022-08-25T13:22:12;94311.41;;;29.27;38.09
10946;BME280;5525;42.648;23.368;2022-08-25T13:24:43;94348.56;;;29.54;38.18
10946;BME280;5525;42.648;23.368;2022-08-25T13:27:20;94332.63;;;29.33;38.12